createdAt,value
2022-08-22T00:02:10.596Z,100164.72
2022-08-22T00:02:46.133Z,100129.31
2022-08-22T00:04:48.840Z,100160.75
2022-08-22T00:07:38.824Z,100162.00
2022-08-22T00:10:25.285Z,100158.88
2022-08-22T00:13:02.342Z,100159.25
2022-08-22T00:15:43.567Z,100158.63
2022-08-22T00:18:31.867Z,100125.19
2022-08-22T00:21:12.018Z,100146.75
2022-08-22T00:23:44.751Z,100150.72
2022-08-22T00:26:23.966Z,100140.13
2022-08-22T00:28:58.186Z,100147.03
2022-08-22T00:31:34.657Z,100137.03
2022-08-22T00:34:07.945Z,100140.97
2022-08-22T00:36:40.655Z,100145.38
2022-08-22T00:39:16.031Z,100143.69
2022-08-22T00:42:29.505Z,100141.06
2022-08-22T00:45:45.730Z,100140.47
2022-08-22T00:48:43.260Z,100138.59
2022-08-22T00:51:32.586Z,100138.84
2022-08-22T00:54:17.617Z,100137.00
2022-08-22T00:57:00.474Z,100137.09
2022-08-22T00:59:56.402Z,100140.75
2022-08-22T01:02:33.289Z,100142.59
2022-08-22T01:05:18.836Z,100140.91
2022-08-22T01:08:06.387Z,100092.31
2022-08-22T01:10:50.774Z,100133.09
2022-08-22T01:13:35.725Z,100137.03
2022-08-22T01:16:21.467Z,100138.66
2022-08-22T01:19:15.021Z,100124.97
2022-08-22T01:23:56.385Z,100132.50
2022-08-22T01:26:57.474Z,100128.56
2022-08-22T01:30:00.152Z,100129.03
2022-08-22T01:33:12.091Z,100127.41
2022-08-22T01:36:20.054Z,100121.25
2022-08-22T01:39:03.327Z,100126.03
2022-08-22T01:41:58.909Z,100120.75
2022-08-22T01:44:49.272Z,100116.53
2022-08-22T01:47:22.124Z,100122.41
2022-08-22T01:49:55.414Z,100129.50
2022-08-22T01:52:40.121Z,100119.78
2022-08-22T01:55:22.444Z,100116.88
2022-08-22T01:57:53.979Z,100118.19
2022-08-22T02:00:34.842Z,100125.78
2022-08-22T02:03:24.184Z,100123.53
2022-08-22T02:06:00.561Z,100130.91
2022-08-22T02:08:39.408Z,100127.66
2022-08-22T02:11:29.732Z,100126.16
2022-08-22T02:14:04.328Z,100126.72
2022-08-22T02:16:39.795Z,100128.78
2022-08-22T02:19:22.304Z,100129.19
2022-08-22T02:21:56.462Z,100131.13
2022-08-22T02:24:36.937Z,100142.28
2022-08-22T02:27:13.945Z,100131.91
2022-08-22T02:29:51.563Z,100123.06
2022-08-22T02:32:28.056Z,100131.59
2022-08-22T02:35:06.839Z,100133.22
2022-08-22T02:37:42.006Z,100136.25
2022-08-22T02:40:28.100Z,100125.22
2022-08-22T02:43:03.821Z,100125.44
2022-08-22T02:45:39.140Z,100128.44
2022-08-22T02:48:18.157Z,100124.34
2022-08-22T02:50:52.464Z,100119.59
2022-08-22T02:53:28.173Z,100121.75
2022-08-22T02:56:04.225Z,100121.13
2022-08-22T02:58:43.844Z,100126.41
2022-08-22T03:01:22.515Z,100122.06
2022-08-22T03:03:52.507Z,100116.78
2022-08-22T03:06:39.214Z,100123.22
2022-08-22T03:09:24.956Z,100121.72
2022-08-22T03:12:10.369Z,100125.91
2022-08-22T03:14:45.773Z,100120.09
2022-08-22T03:17:20.161Z,100115.00
2022-08-22T03:20:00.343Z,100117.59
2022-08-22T03:22:39.012Z,100117.88
2022-08-22T03:25:15.627Z,100121.50
2022-08-22T03:27:51.871Z,100119.47
2022-08-22T03:30:23.317Z,100125.94
2022-08-22T03:32:55.573Z,100125.28
2022-08-22T03:35:37.892Z,100122.97
2022-08-22T03:38:19.741Z,100126.47
2022-08-22T03:41:04.747Z,100131.06
2022-08-22T03:44:00.705Z,100129.34
2022-08-22T03:46:52.744Z,100126.66
2022-08-22T03:50:09.540Z,100130.31
2022-08-22T03:53:18.581Z,100123.91
2022-08-22T03:56:14.550Z,100127.22
2022-08-22T03:59:09.815Z,100128.56
2022-08-22T04:01:57.544Z,100126.00
2022-08-22T04:04:59.108Z,100121.75
2022-08-22T04:07:47.069Z,100125.34
2022-08-22T04:10:52.042Z,100125.53
2022-08-22T04:14:05.902Z,100122.47
2022-08-22T04:17:12.955Z,100133.53
2022-08-22T04:20:20.924Z,100133.63
2022-08-22T04:23:17.153Z,100130.06
2022-08-22T04:25:53.952Z,100129.19
2022-08-22T04:28:31.863Z,100138.06
2022-08-22T04:31:07.797Z,100134.78
2022-08-22T04:33:53.040Z,100138.84
2022-08-22T04:36:26.333Z,100139.59
2022-08-22T04:38:57.406Z,100137.03
2022-08-22T04:41:31.385Z,100142.22
2022-08-22T04:44:04.838Z,100137.91
2022-08-22T04:46:39.338Z,100150.50
2022-08-22T04:49:15.190Z,100149.13
2022-08-22T04:51:48.763Z,100149.63
2022-08-22T04:54:33.735Z,100149.63
2022-08-22T04:57:20.300Z,100147.03
2022-08-22T04:59:50.496Z,100153.94
2022-08-22T05:02:25.328Z,100150.31
2022-08-22T05:05:04.180Z,100147.69
2022-08-22T05:07:36.434Z,100152.88
2022-08-22T05:10:12.525Z,100153.38
2022-08-22T05:12:45.261Z,100144.53
2022-08-22T05:15:23.143Z,100151.91
2022-08-22T05:17:58.233Z,100157.31
2022-08-22T05:20:29.585Z,100162.19
2022-08-22T05:23:01.349Z,100160.75
2022-08-22T05:25:38.607Z,100154.75
2022-08-22T05:28:12.092Z,100147.94
2022-08-22T05:30:41.142Z,100152.78
2022-08-22T05:33:20.391Z,100154.03
2022-08-22T05:35:57.753Z,100157.72
2022-08-22T05:38:31.655Z,100148.22
2022-08-22T05:41:05.499Z,100152.00
2022-08-22T05:43:39.479Z,100149.06
2022-08-22T05:46:20.617Z,100154.78
2022-08-22T05:49:00.317Z,100148.28
2022-08-22T05:51:35.380Z,100155.69
2022-08-22T05:54:12.631Z,100147.75
2022-08-22T05:56:47.144Z,100160.00
2022-08-22T05:59:25.500Z,100165.53
2022-08-22T06:02:03.056Z,100164.03
2022-08-22T06:04:38.765Z,100162.16
2022-08-22T06:07:11.645Z,100170.28
2022-08-22T06:10:04.823Z,100165.63
2022-08-22T06:12:38.934Z,100162.47
2022-08-22T06:15:20.956Z,100163.25
2022-08-22T06:17:57.702Z,100160.66
2022-08-22T06:20:37.906Z,100162.66
2022-08-22T06:24:29.137Z,100173.97
2022-08-22T06:27:05.282Z,100161.84
2022-08-22T06:29:38.810Z,100172.63
2022-08-22T06:32:13.070Z,100157.84
2022-08-22T06:34:44.602Z,100195.06
2022-08-22T06:37:18.702Z,100185.47
2022-08-22T06:39:54.005Z,100186.91
2022-08-22T06:42:25.156Z,100174.66
2022-08-22T06:45:00.454Z,100185.53
2022-08-22T06:47:34.184Z,100178.91
2022-08-22T06:50:06.708Z,100182.78
2022-08-22T06:52:52.223Z,100175.03
2022-08-22T06:55:23.827Z,100178.91
2022-08-22T06:57:57.786Z,100183.59
2022-08-22T07:00:29.130Z,100184.38
2022-08-22T07:03:01.387Z,100194.34
2022-08-22T07:05:38.784Z,100190.06
2022-08-22T07:08:09.222Z,100205.91
2022-08-22T07:10:42.361Z,100204.47
2022-08-22T07:13:16.165Z,100201.34
2022-08-22T07:15:54.988Z,100207.81
2022-08-22T07:18:28.730Z,100203.78
2022-08-22T07:20:57.889Z,100209.41
2022-08-22T07:23:32.527Z,100211.78
2022-08-22T07:26:15.923Z,100211.41
2022-08-22T07:28:51.166Z,100215.78
2022-08-22T07:31:34.592Z,100205.28
2022-08-22T07:34:21.785Z,100216.78
2022-08-22T07:36:57.512Z,100222.25
2022-08-22T07:39:30.120Z,100220.59
2022-08-22T07:42:06.884Z,100222.34
2022-08-22T07:44:44.180Z,100224.22
2022-08-22T07:47:18.035Z,100229.84
2022-08-22T07:49:56.076Z,100218.53
2022-08-22T07:52:25.011Z,100227.28
2022-08-22T07:54:57.828Z,100221.31
2022-08-22T07:57:33.415Z,100209.66
2022-08-22T08:00:04.717Z,100216.97
2022-08-22T08:02:45.560Z,100223.56
2022-08-22T08:05:15.360Z,100226.00
2022-08-22T08:07:46.216Z,100226.78
2022-08-22T08:10:19.993Z,100219.53
2022-08-22T08:13:02.486Z,100225.38
2022-08-22T08:15:34.881Z,100224.50
2022-08-22T08:18:06.883Z,100215.97
2022-08-22T08:20:38.500Z,100219.00
2022-08-22T08:23:10.407Z,100215.63
2022-08-22T08:25:54.657Z,100226.28
2022-08-22T08:28:38.706Z,100226.75
2022-08-22T08:31:11.167Z,100225.13
2022-08-22T08:33:44.165Z,100231.00
2022-08-22T08:36:26.531Z,100234.56
2022-08-22T08:39:00.105Z,100235.97
2022-08-22T08:42:00.457Z,100236.88
2022-08-22T08:44:58.026Z,100233.00
2022-08-22T08:47:39.888Z,100235.00
2022-08-22T08:50:29.002Z,100225.41
2022-08-22T08:53:31.312Z,100225.63
2022-08-22T08:56:02.873Z,100230.47
2022-08-22T08:58:49.083Z,100222.69
2022-08-22T09:01:37.446Z,100230.66
2022-08-22T09:04:47.432Z,100231.56
2022-08-22T09:08:00.789Z,100232.75
2022-08-22T09:10:50.387Z,100231.16
2022-08-22T09:13:41.515Z,100236.72
2022-08-22T09:16:45.065Z,100237.78
2022-08-22T09:19:45.352Z,100231.22
2022-08-22T09:22:49.941Z,100232.44
2022-08-22T09:25:27.908Z,100232.72
2022-08-22T09:28:15.336Z,100225.69
2022-08-22T09:30:59.064Z,100228.75
2022-08-22T09:33:36.350Z,100227.97
2022-08-22T09:36:12.287Z,100227.25
2022-08-22T09:38:51.527Z,100219.47
2022-08-22T09:41:33.670Z,100213.34
2022-08-22T09:44:13.292Z,100209.94
2022-08-22T09:46:53.352Z,100206.91
2022-08-22T09:49:33.813Z,100207.03
2022-08-22T09:52:15.308Z,100198.06
2022-08-22T09:55:08.536Z,100199.25
2022-08-22T09:57:40.770Z,100206.34
2022-08-22T10:00:22.022Z,100199.72
2022-08-22T10:03:03.984Z,100199.06
2022-08-22T10:05:44.921Z,100194.28
2022-08-22T10:08:49.253Z,100192.16
2022-08-22T10:11:28.759Z,100189.53
2022-08-22T10:14:04.382Z,100183.72
2022-08-22T10:17:03.913Z,100184.03
2022-08-22T10:19:43.422Z,100174.00
2022-08-22T10:22:21.689Z,100177.63
2022-08-22T10:25:05.791Z,100176.13
2022-08-22T10:27:47.957Z,100181.69
2022-08-22T10:30:20.309Z,100174.41
2022-08-22T10:33:00.686Z,100171.78
2022-08-22T10:35:33.941Z,100176.25
2022-08-22T10:38:10.872Z,100175.19
2022-08-22T10:40:48.319Z,100167.50
2022-08-22T10:43:28.735Z,100163.50
2022-08-22T10:46:03.784Z,100169.28
2022-08-22T10:48:38.491Z,100172.47
2022-08-22T10:51:21.560Z,100158.09
2022-08-22T10:54:19.961Z,100159.53
2022-08-22T10:56:57.714Z,100148.03
2022-08-22T10:59:40.763Z,100156.94
2022-08-22T11:02:37.516Z,100158.44
2022-08-22T11:05:27.259Z,100153.72
2022-08-22T11:08:17.576Z,100142.94
2022-08-22T11:11:06.033Z,100142.38
2022-08-22T11:13:43.493Z,100133.41
2022-08-22T11:16:27.557Z,100126.53
2022-08-22T11:19:15.613Z,100123.56
2022-08-22T11:21:52.945Z,100122.44
2022-08-22T11:25:52.583Z,100125.34
2022-08-22T11:28:49.139Z,100137.00
2022-08-22T11:31:31.791Z,100128.69
2022-08-22T11:34:11.651Z,100121.28
2022-08-22T11:36:46.508Z,100117.38
2022-08-22T11:39:24.406Z,100124.66
2022-08-22T11:42:06.124Z,100122.13
2022-08-22T11:44:50.657Z,100110.94
2022-08-22T11:47:28.810Z,100115.94
2022-08-22T11:50:03.532Z,100120.03
2022-08-22T11:52:58.064Z,100107.53
2022-08-22T11:55:35.994Z,100109.94
2022-08-22T11:58:21.800Z,100109.59
2022-08-22T12:01:02.793Z,100096.25
2022-08-22T12:04:05.116Z,100108.97
2022-08-22T12:06:49.728Z,100107.31
2022-08-22T12:09:50.618Z,100099.06
2022-08-22T12:12:26.654Z,100102.38
2022-08-22T12:15:03.080Z,100089.22
2022-08-22T12:18:19.965Z,100095.44
2022-08-22T12:21:21.551Z,100093.78
2022-08-22T12:24:20.946Z,100083.41
2022-08-22T12:27:18.439Z,100087.94
2022-08-22T12:30:15.163Z,100078.41
2022-08-22T12:33:16.378Z,100063.91
2022-08-22T12:36:04.803Z,100071.06
2022-08-22T12:38:47.624Z,100069.88
2022-08-22T12:41:36.104Z,100061.53
2022-08-22T12:44:21.486Z,100066.78
2022-08-22T12:47:05.204Z,100054.09
2022-08-22T12:49:49.921Z,100059.31
2022-08-22T12:52:38.004Z,100055.25
2022-08-22T12:55:43.830Z,100050.94
2022-08-22T12:58:24.398Z,100043.47
2022-08-22T13:00:53.452Z,100050.47
2022-08-22T13:03:28.566Z,100046.94
2022-08-22T13:06:00.611Z,100037.13
2022-08-22T13:08:37.140Z,100042.78
2022-08-22T13:11:23.294Z,100040.22
2022-08-22T13:13:56.430Z,100035.03
2022-08-22T13:16:36.392Z,100031.53
2022-08-22T13:19:14.564Z,100032.22
2022-08-22T13:21:49.027Z,100029.81
2022-08-22T13:24:38.656Z,100031.59
2022-08-22T13:27:17.013Z,100030.25
2022-08-22T13:29:53.864Z,100030.19
2022-08-22T13:32:32.353Z,100019.97
2022-08-22T13:35:02.739Z,100026.88
2022-08-22T13:37:37.632Z,100032.78
2022-08-22T13:40:10.883Z,100028.66
2022-08-22T13:42:48.023Z,100025.78
2022-08-22T13:45:22.814Z,100030.81
2022-08-22T13:47:55.880Z,100029.09
2022-08-22T13:50:28.999Z,100025.50
2022-08-22T13:53:08.123Z,100016.16
2022-08-22T13:55:43.964Z,100021.81
2022-08-22T13:58:31.332Z,100018.16
2022-08-22T14:01:15.909Z,100008.78
2022-08-22T14:03:49.980Z,100012.28
2022-08-22T14:06:37.881Z,100011.19
2022-08-22T14:09:31.559Z,100010.09
2022-08-22T14:12:12.656Z,99981.88
2022-08-22T14:14:45.998Z,100006.91
2022-08-22T14:17:21.119Z,100006.97
2022-08-22T14:19:59.073Z,100009.19
2022-08-22T14:22:35.454Z,100004.47
2022-08-22T14:25:09.140Z,99997.41
2022-08-22T14:27:43.862Z,99999.63
2022-08-22T14:30:18.639Z,99999.66
2022-08-22T14:32:51.331Z,99993.03
2022-08-22T14:35:34.618Z,99990.59
2022-08-22T14:38:29.715Z,99985.06
2022-08-22T14:41:06.843Z,99982.09
2022-08-22T14:43:56.784Z,99985.03
2022-08-22T14:46:35.238Z,99982.09
2022-08-22T14:49:16.024Z,99969.25
2022-08-22T14:51:50.726Z,99973.06
2022-08-22T14:54:29.234Z,99969.22
2022-08-22T14:57:01.827Z,99971.63
2022-08-22T14:59:39.461Z,99982.56
2022-08-22T15:02:14.902Z,99976.47
2022-08-22T15:04:45.479Z,99974.09
2022-08-22T15:07:24.204Z,99971.28
2022-08-22T15:09:58.852Z,99962.72
2022-08-22T15:12:29.795Z,99965.69
2022-08-22T15:15:02.726Z,99964.63
2022-08-22T15:17:35.737Z,99966.41
2022-08-22T15:20:14.410Z,99965.06
2022-08-22T15:22:46.713Z,99969.34
2022-08-22T15:25:19.360Z,99956.94
2022-08-22T15:27:53.918Z,99956.81
2022-08-22T15:30:32.793Z,99962.91
2022-08-22T15:33:14.423Z,99959.50
2022-08-22T15:35:44.092Z,99951.84
2022-08-22T15:38:27.912Z,99962.19
2022-08-22T15:41:17.881Z,99956.03
2022-08-22T15:43:50.665Z,99954.69
2022-08-22T15:46:29.800Z,99947.38
2022-08-22T15:49:03.515Z,99952.19
2022-08-22T15:51:39.310Z,99953.09
2022-08-22T15:54:24.717Z,99938.88
2022-08-22T15:57:16.170Z,99951.38
2022-08-22T15:59:55.764Z,99948.72
2022-08-22T16:02:34.910Z,99942.28
2022-08-22T16:05:24.525Z,99938.53
2022-08-22T16:08:03.598Z,99943.38
2022-08-22T16:10:37.644Z,99943.94
2022-08-22T16:13:33.612Z,99936.28
2022-08-22T16:16:06.986Z,99939.91
2022-08-22T16:19:17.233Z,99947.03
2022-08-22T16:22:08.333Z,99934.53
2022-08-22T16:26:39.452Z,99925.69
2022-08-22T16:29:31.488Z,99934.41
2022-08-22T16:32:10.583Z,99934.78
2022-08-22T16:34:44.000Z,99933.63
2022-08-22T16:37:36.943Z,99931.16
2022-08-22T16:40:14.960Z,99932.81
2022-08-22T16:42:47.372Z,99929.44
2022-08-22T16:45:33.951Z,99934.63
2022-08-22T16:48:23.435Z,99933.09
2022-08-22T16:51:06.828Z,99929.41
2022-08-22T16:54:03.807Z,99929.75
2022-08-22T16:56:38.352Z,99933.34
2022-08-22T16:59:28.458Z,99934.03
2022-08-22T17:02:28.326Z,99938.72
2022-08-22T17:05:11.715Z,99935.88
2022-08-22T17:07:55.284Z,99931.38
2022-08-22T17:10:51.429Z,99937.91
2022-08-22T17:13:32.985Z,99943.22
2022-08-22T17:16:16.083Z,99940.47
2022-08-22T17:18:57.739Z,99933.16
2022-08-22T17:21:30.130Z,99934.69
2022-08-22T17:24:06.283Z,99939.84
2022-08-22T17:26:55.188Z,99943.09
2022-08-22T17:29:34.025Z,99942.28
2022-08-22T17:32:12.099Z,99941.47
2022-08-22T17:34:51.175Z,99942.31
2022-08-22T17:37:26.946Z,99936.03
2022-08-22T17:40:16.040Z,99940.84
2022-08-22T17:43:00.292Z,99946.50
2022-08-22T17:45:42.831Z,99946.84
2022-08-22T17:48:19.928Z,99951.66
2022-08-22T17:50:55.571Z,99950.59
2022-08-22T17:53:31.681Z,99951.28
2022-08-22T17:56:08.095Z,99950.41
2022-08-22T17:58:44.505Z,99951.16
2022-08-22T18:01:16.710Z,99952.00
2022-08-22T18:03:53.463Z,99951.16
2022-08-22T18:06:30.723Z,99952.03
2022-08-22T18:09:19.319Z,99949.41
2022-08-22T18:11:53.472Z,99949.75
2022-08-22T18:14:29.741Z,99955.22
2022-08-22T18:17:00.818Z,99952.66
2022-08-22T18:19:43.324Z,99950.72
2022-08-22T18:22:24.173Z,99960.31
2022-08-22T18:24:58.554Z,99956.00
2022-08-22T18:27:35.632Z,99963.13
2022-08-22T18:30:17.343Z,99964.94
2022-08-22T18:32:57.389Z,99958.38
2022-08-22T18:35:32.433Z,99968.91
2022-08-22T18:38:19.103Z,99973.28
2022-08-22T18:40:55.604Z,99977.34
2022-08-22T18:43:38.142Z,99971.19
2022-08-22T18:46:31.639Z,99969.72
2022-08-22T18:49:15.469Z,99971.88
2022-08-22T18:51:45.357Z,99973.50
2022-08-22T18:54:36.650Z,99970.16
2022-08-22T18:57:23.670Z,99970.22
2022-08-22T19:00:07.036Z,99983.19
2022-08-22T19:03:14.171Z,99982.03
2022-08-22T19:06:04.693Z,99983.28
2022-08-22T19:08:59.362Z,99982.84
2022-08-22T19:11:43.083Z,99986.41
2022-08-22T19:14:50.560Z,99989.72
2022-08-22T19:17:38.840Z,99990.97
2022-08-22T19:20:31.381Z,99991.69
2022-08-22T19:23:32.497Z,99991.00
2022-08-22T19:26:28.912Z,99995.66
2022-08-22T19:29:01.249Z,100003.44
2022-08-22T19:31:49.380Z,100002.47
2022-08-22T19:34:41.422Z,100009.19
2022-08-22T19:37:32.554Z,100009.44
2022-08-22T19:40:06.944Z,100010.97
2022-08-22T19:42:43.171Z,100010.13
2022-08-22T19:45:23.381Z,100008.47
2022-08-22T19:47:58.856Z,100004.66
2022-08-22T19:50:35.157Z,100002.25
2022-08-22T19:53:31.283Z,100005.44
2022-08-22T19:56:12.756Z,100012.50
2022-08-22T19:58:54.519Z,100009.50
2022-08-22T20:01:37.263Z,100007.81
2022-08-22T20:04:11.075Z,100007.13
2022-08-22T20:06:44.491Z,100012.44
2022-08-22T20:09:25.274Z,100018.06
2022-08-22T20:12:04.003Z,100014.63
2022-08-22T20:14:37.109Z,100021.09
2022-08-22T20:17:10.873Z,100019.47
2022-08-22T20:22:45.425Z,100015.75
2022-08-22T20:25:43.137Z,100015.72
2022-08-22T20:28:14.874Z,100018.66
2022-08-22T20:30:47.769Z,100023.44
2022-08-22T20:33:22.964Z,100017.53
2022-08-22T20:35:55.054Z,100015.19
2022-08-22T20:38:27.918Z,100022.59
2022-08-22T20:41:11.649Z,100022.28
2022-08-22T20:43:50.714Z,100029.84
2022-08-22T20:46:43.558Z,100034.31
2022-08-22T20:49:18.704Z,100027.66
2022-08-22T20:51:53.863Z,100022.31
2022-08-22T20:54:27.241Z,100023.88
2022-08-22T20:56:57.450Z,100025.53
2022-08-22T20:59:36.914Z,100028.53
2022-08-22T21:02:14.497Z,100027.81
2022-08-22T21:04:52.777Z,100027.88
2022-08-22T21:07:26.752Z,100029.06
2022-08-22T21:10:21.717Z,100024.50
2022-08-22T21:13:04.413Z,100035.34
2022-08-22T21:15:40.622Z,100035.53
2022-08-22T21:18:11.983Z,100039.94
2022-08-22T21:20:41.838Z,100036.66
2022-08-22T21:23:15.015Z,100044.38
2022-08-22T21:27:31.493Z,100034.53
2022-08-22T21:30:06.662Z,100037.25
2022-08-22T21:32:41.273Z,100044.44
2022-08-22T21:35:24.927Z,100040.53
2022-08-22T21:37:53.825Z,100044.00
2022-08-22T21:40:29.749Z,100038.47
2022-08-22T21:43:06.528Z,100041.56
2022-08-22T21:45:41.251Z,100051.66
2022-08-22T21:48:41.162Z,100053.50
2022-08-22T21:51:42.762Z,100046.88
2022-08-22T21:54:39.567Z,100046.75
2022-08-22T21:57:36.067Z,100051.91
2022-08-22T22:00:31.456Z,100053.28
2022-08-22T22:03:00.776Z,100051.28
2022-08-22T22:05:30.986Z,100051.91
2022-08-22T22:07:59.389Z,100051.03
2022-08-22T22:10:30.075Z,100056.94
2022-08-22T22:12:59.639Z,100059.53
2022-08-22T22:15:33.242Z,100066.16
2022-08-22T22:18:01.624Z,100063.09
2022-08-22T22:20:30.105Z,100064.94
2022-08-22T22:22:58.970Z,100062.25
2022-08-22T22:25:38.882Z,100069.72
2022-08-22T22:28:15.545Z,100073.78
2022-08-22T22:30:50.573Z,100074.75
2022-08-22T22:33:18.793Z,100075.00
2022-08-22T22:35:50.601Z,100076.00
2022-08-22T22:38:24.136Z,100079.66
2022-08-22T22:40:53.355Z,100077.59
2022-08-22T22:43:23.797Z,100083.28
2022-08-22T22:45:53.322Z,100055.94
2022-08-22T22:48:24.518Z,100083.16
2022-08-22T22:50:53.621Z,100087.34
2022-08-22T22:53:33.717Z,100093.88
2022-08-22T22:56:09.584Z,100088.28
2022-08-22T22:58:38.987Z,100092.84
2022-08-22T23:01:12.938Z,100088.31
2022-08-22T23:03:41.428Z,100084.00
2022-08-22T23:06:12.286Z,100095.16
2022-08-22T23:08:40.477Z,100096.63
2022-08-22T23:11:11.719Z,100097.09
2022-08-22T23:13:42.903Z,100094.97
2022-08-22T23:16:15.752Z,100094.31
2022-08-22T23:18:43.916Z,100096.06
2022-08-22T23:21:15.106Z,100099.97
2022-08-22T23:23:43.892Z,100102.91
2022-08-22T23:26:12.840Z,100110.63
2022-08-22T23:28:41.791Z,100112.91
2022-08-22T23:31:14.695Z,100115.47
2022-08-22T23:33:43.358Z,100130.75
2022-08-22T23:36:13.700Z,100125.69
2022-08-22T23:38:41.830Z,100126.13
2022-08-22T23:41:11.761Z,100118.75
2022-08-22T23:43:43.156Z,100114.16
2022-08-22T23:46:14.021Z,100114.06
2022-08-22T23:48:42.871Z,100108.22
2022-08-22T23:51:15.102Z,100110.28
2022-08-22T23:53:45.574Z,100106.63
2022-08-22T23:56:19.869Z,100116.81
2022-08-22T23:58:49.285Z,100118.25
